sensor_id;sensor_type;location;lat;lon;timestamp;P1;durP1;ratioP1;P2;durP2;ratioP2
71878;SDS011;59755;43.834;4.364;2022-12-05T00:01:14;8.35;;;3.90;;
71878;SDS011;59755;43.834;4.364;2022-12-05T00:03:40;7.43;;;4.15;;
71878;SDS011;59755;43.834;4.364;2022-12-05T00:06:06;8.55;;;4.30;;
71878;SDS011;59755;43.834;4.364;2022-12-05T00:08:32;7.97;;;4.40;;
71878;SDS011;59755;43.834;4.364;2022-12-05T00:10:58;8.82;;;4.18;;
71878;SDS011;59755;43.834;4.364;2022-12-05T00:13:24;8.18;;;3.97;;
71878;SDS011;59755;43.834;4.364;2022-12-05T00:15:50;8.25;;;4.22;;
71878;SDS011;59755;43.834;4.364;2022-12-05T00:18:15;8.68;;;4.40;;
71878;SDS011;59755;43.834;4.364;2022-12-05T00:20:44;7.80;;;3.40;;
71878;SDS011;59755;43.834;4.364;2022-12-05T00:23:11;6.78;;;3.55;;
71878;SDS011;59755;43.834;4.364;2022-12-05T00:25:37;6.72;;;3.45;;
71878;SDS011;59755;43.834;4.364;2022-12-05T00:28:03;7.00;;;3.45;;
71878;SDS011;59755;43.834;4.364;2022-12-05T00:30:29;6.95;;;3.67;;
71878;SDS011;59755;43.834;4.364;2022-12-05T00:32:54;7.47;;;4.05;;
71878;SDS011;59755;43.834;4.364;2022-12-05T00:35:20;6.57;;;3.55;;
71878;SDS011;59755;43.834;4.364;2022-12-05T00:37:46;8.05;;;3.55;;
71878;SDS011;59755;43.834;4.364;2022-12-05T00:40:12;6.55;;;3.53;;
71878;SDS011;59755;43.834;4.364;2022-12-05T00:42:37;7.50;;;4.15;;
71878;SDS011;59755;43.834;4.364;2022-12-05T00:45:03;8.00;;;3.75;;
71878;SDS011;59755;43.834;4.364;2022-12-05T00:47:29;7.93;;;3.38;;
71878;SDS011;59755;43.834;4.364;2022-12-05T00:49:58;7.75;;;3.35;;
71878;SDS011;59755;43.834;4.364;2022-12-05T00:52:23;8.38;;;3.58;;
71878;SDS011;59755;43.834;4.364;2022-12-05T00:54:50;7.13;;;3.63;;
71878;SDS011;59755;43.834;4.364;2022-12-05T00:57:16;7.28;;;3.35;;
71878;SDS011;59755;43.834;4.364;2022-12-05T00:59:42;6.03;;;3.10;;
71878;SDS011;59755;43.834;4.364;2022-12-05T01:02:07;7.22;;;3.55;;
71878;SDS011;59755;43.834;4.364;2022-12-05T01:04:33;7.50;;;3.60;;
71878;SDS011;59755;43.834;4.364;2022-12-05T01:06:59;7.55;;;3.00;;
71878;SDS011;59755;43.834;4.364;2022-12-05T01:09:24;6.85;;;3.50;;
71878;SDS011;59755;43.834;4.364;2022-12-05T01:11:51;7.05;;;3.00;;
71878;SDS011;59755;43.834;4.364;2022-12-05T01:14:18;6.80;;;3.50;;
71878;SDS011;59755;43.834;4.364;2022-12-05T01:16:45;7.47;;;3.42;;
71878;SDS011;59755;43.834;4.364;2022-12-05T01:19:14;7.20;;;3.80;;
71878;SDS011;59755;43.834;4.364;2022-12-05T01:21:51;7.13;;;3.85;;
71878;SDS011;59755;43.834;4.364;2022-12-05T01:24:17;6.78;;;3.60;;
71878;SDS011;59755;43.834;4.364;2022-12-05T01:26:44;6.80;;;3.60;;
71878;SDS011;59755;43.834;4.364;2022-12-05T01:29:11;6.60;;;3.10;;
71878;SDS011;59755;43.834;4.364;2022-12-05T01:31:39;7.10;;;3.15;;
71878;SDS011;59755;43.834;4.364;2022-12-05T01:34:06;7.63;;;3.28;;
71878;SDS011;59755;43.834;4.364;2022-12-05T01:36:34;7.82;;;3.38;;
71878;SDS011;59755;43.834;4.364;2022-12-05T01:39:00;7.95;;;3.28;;
71878;SDS011;59755;43.834;4.364;2022-12-05T01:41:28;7.10;;;3.05;;
71878;SDS011;59755;43.834;4.364;2022-12-05T01:46:23;7.70;;;3.47;;
71878;SDS011;59755;43.834;4.364;2022-12-05T01:48:50;5.85;;;3.13;;
71878;SDS011;59755;43.834;4.364;2022-12-05T01:51:19;6.07;;;2.85;;
71878;SDS011;59755;43.834;4.364;2022-12-05T01:53:46;6.82;;;3.00;;
71878;SDS011;59755;43.834;4.364;2022-12-05T01:56:12;6.72;;;3.13;;
71878;SDS011;59755;43.834;4.364;2022-12-05T01:58:38;6.88;;;2.85;;
71878;SDS011;59755;43.834;4.364;2022-12-05T02:01:06;6.65;;;3.20;;
71878;SDS011;59755;43.834;4.364;2022-12-05T02:03:32;6.13;;;3.08;;
71878;SDS011;59755;43.834;4.364;2022-12-05T02:06:01;8.45;;;3.42;;
71878;SDS011;59755;43.834;4.364;2022-12-05T02:08:28;7.45;;;3.05;;
71878;SDS011;59755;43.834;4.364;2022-12-05T02:10:54;6.53;;;3.28;;
71878;SDS011;59755;43.834;4.364;2022-12-05T02:30:20;5.80;;;2.90;;
71878;SDS011;59755;43.834;4.364;2022-12-05T02:40:28;6.15;;;3.00;;
71878;SDS011;59755;43.834;4.364;2022-12-05T02:43:06;6.97;;;3.22;;
71878;SDS011;59755;43.834;4.364;2022-12-05T02:45:39;6.93;;;3.15;;
71878;SDS011;59755;43.834;4.364;2022-12-05T02:48:06;6.47;;;3.17;;
71878;SDS011;59755;43.834;4.364;2022-12-05T02:50:35;6.55;;;3.17;;
71878;SDS011;59755;43.834;4.364;2022-12-05T02:53:04;7.93;;;3.25;;
71878;SDS011;59755;43.834;4.364;2022-12-05T02:55:34;7.30;;;3.22;;
71878;SDS011;59755;43.834;4.364;2022-12-05T02:58:04;7.15;;;3.42;;
71878;SDS011;59755;43.834;4.364;2022-12-05T03:00:41;7.22;;;3.80;;
71878;SDS011;59755;43.834;4.364;2022-12-05T03:03:16;7.72;;;3.17;;
71878;SDS011;59755;43.834;4.364;2022-12-05T03:08:21;6.72;;;3.40;;
71878;SDS011;59755;43.834;4.364;2022-12-05T03:10:49;5.85;;;3.10;;
71878;SDS011;59755;43.834;4.364;2022-12-05T03:13:21;6.35;;;3.08;;
71878;SDS011;59755;43.834;4.364;2022-12-05T03:15:52;6.90;;;3.35;;
71878;SDS011;59755;43.834;4.364;2022-12-05T03:20:55;6.82;;;3.35;;
71878;SDS011;59755;43.834;4.364;2022-12-05T03:23:37;7.03;;;3.33;;
71878;SDS011;59755;43.834;4.364;2022-12-05T03:31:45;7.28;;;3.50;;
71878;SDS011;59755;43.834;4.364;2022-12-05T03:34:31;8.70;;;3.97;;
71878;SDS011;59755;43.834;4.364;2022-12-05T03:37:07;7.60;;;4.38;;
71878;SDS011;59755;43.834;4.364;2022-12-05T03:39:37;8.05;;;4.05;;
71878;SDS011;59755;43.834;4.364;2022-12-05T03:42:09;7.80;;;4.38;;
71878;SDS011;59755;43.834;4.364;2022-12-05T03:47:24;8.75;;;4.80;;
71878;SDS011;59755;43.834;4.364;2022-12-05T03:49:58;10.20;;;5.05;;
71878;SDS011;59755;43.834;4.364;2022-12-05T03:52:35;10.02;;;5.10;;
71878;SDS011;59755;43.834;4.364;2022-12-05T03:55:07;9.95;;;4.63;;
71878;SDS011;59755;43.834;4.364;2022-12-05T03:57:52;9.43;;;4.95;;
71878;SDS011;59755;43.834;4.364;2022-12-05T04:00:22;10.02;;;5.32;;
71878;SDS011;59755;43.834;4.364;2022-12-05T04:02:51;9.15;;;5.35;;
71878;SDS011;59755;43.834;4.364;2022-12-05T04:05:38;10.45;;;5.60;;
71878;SDS011;59755;43.834;4.364;2022-12-05T04:08:16;8.95;;;5.40;;
71878;SDS011;59755;43.834;4.364;2022-12-05T04:10:50;10.52;;;5.75;;
71878;SDS011;59755;43.834;4.364;2022-12-05T04:13:26;10.98;;;5.85;;
71878;SDS011;59755;43.834;4.364;2022-12-05T04:16:21;10.48;;;5.50;;
71878;SDS011;59755;43.834;4.364;2022-12-05T04:21:42;11.35;;;6.10;;
71878;SDS011;59755;43.834;4.364;2022-12-05T04:24:15;9.57;;;5.05;;
71878;SDS011;59755;43.834;4.364;2022-12-05T04:27:09;10.13;;;5.50;;
71878;SDS011;59755;43.834;4.364;2022-12-05T04:29:47;11.00;;;5.95;;
71878;SDS011;59755;43.834;4.364;2022-12-05T04:32:17;10.02;;;5.30;;
71878;SDS011;59755;43.834;4.364;2022-12-05T04:34:46;9.10;;;4.93;;
71878;SDS011;59755;43.834;4.364;2022-12-05T04:37:18;9.73;;;5.07;;
71878;SDS011;59755;43.834;4.364;2022-12-05T04:39:50;8.50;;;4.32;;
71878;SDS011;59755;43.834;4.364;2022-12-05T04:42:37;9.85;;;4.57;;
71878;SDS011;59755;43.834;4.364;2022-12-05T04:45:07;8.70;;;4.75;;
71878;SDS011;59755;43.834;4.364;2022-12-05T04:47:36;7.90;;;4.13;;
71878;SDS011;59755;43.834;4.364;2022-12-05T04:50:07;8.07;;;4.03;;
71878;SDS011;59755;43.834;4.364;2022-12-05T04:52:35;9.48;;;4.35;;
71878;SDS011;59755;43.834;4.364;2022-12-05T04:55:06;8.40;;;4.20;;
71878;SDS011;59755;43.834;4.364;2022-12-05T04:57:36;7.35;;;4.13;;
71878;SDS011;59755;43.834;4.364;2022-12-05T05:00:05;7.53;;;4.05;;
71878;SDS011;59755;43.834;4.364;2022-12-05T05:02:32;7.38;;;3.83;;
71878;SDS011;59755;43.834;4.364;2022-12-05T05:05:05;7.38;;;3.75;;
71878;SDS011;59755;43.834;4.364;2022-12-05T05:07:41;7.60;;;3.95;;
71878;SDS011;59755;43.834;4.364;2022-12-05T05:10:11;8.13;;;4.10;;
71878;SDS011;59755;43.834;4.364;2022-12-05T05:12:41;7.15;;;3.63;;
71878;SDS011;59755;43.834;4.364;2022-12-05T05:15:07;7.45;;;4.03;;
71878;SDS011;59755;43.834;4.364;2022-12-05T05:17:33;8.00;;;4.00;;
71878;SDS011;59755;43.834;4.364;2022-12-05T05:19:58;7.78;;;4.18;;
71878;SDS011;59755;43.834;4.364;2022-12-05T05:22:43;7.90;;;3.97;;
71878;SDS011;59755;43.834;4.364;2022-12-05T05:25:11;7.85;;;4.00;;
71878;SDS011;59755;43.834;4.364;2022-12-05T05:27:37;8.60;;;3.88;;
71878;SDS011;59755;43.834;4.364;2022-12-05T05:30:03;7.93;;;4.72;;
71878;SDS011;59755;43.834;4.364;2022-12-05T05:32:31;7.40;;;3.95;;
71878;SDS011;59755;43.834;4.364;2022-12-05T05:34:57;7.88;;;3.97;;
71878;SDS011;59755;43.834;4.364;2022-12-05T05:37:23;9.48;;;4.65;;
71878;SDS011;59755;43.834;4.364;2022-12-05T05:39:48;8.20;;;4.20;;
71878;SDS011;59755;43.834;4.364;2022-12-05T05:42:14;8.70;;;4.30;;
71878;SDS011;59755;43.834;4.364;2022-12-05T05:44:40;7.53;;;3.83;;
71878;SDS011;59755;43.834;4.364;2022-12-05T05:47:05;7.38;;;4.20;;
71878;SDS011;59755;43.834;4.364;2022-12-05T05:49:31;10.65;;;4.20;;
71878;SDS011;59755;43.834;4.364;2022-12-05T05:51:57;8.93;;;4.35;;
71878;SDS011;59755;43.834;4.364;2022-12-05T05:54:22;10.82;;;4.07;;
71878;SDS011;59755;43.834;4.364;2022-12-05T05:56:48;9.95;;;4.38;;
71878;SDS011;59755;43.834;4.364;2022-12-05T05:59:14;9.25;;;4.30;;
71878;SDS011;59755;43.834;4.364;2022-12-05T06:01:39;15.80;;;4.70;;
71878;SDS011;59755;43.834;4.364;2022-12-05T06:04:05;10.38;;;4.95;;
71878;SDS011;59755;43.834;4.364;2022-12-05T06:06:31;9.45;;;4.00;;
71878;SDS011;59755;43.834;4.364;2022-12-05T06:08:57;12.38;;;4.90;;
71878;SDS011;59755;43.834;4.364;2022-12-05T06:11:24;13.38;;;5.32;;
71878;SDS011;59755;43.834;4.364;2022-12-05T06:13:51;12.05;;;5.32;;
71878;SDS011;59755;43.834;4.364;2022-12-05T06:16:17;14.07;;;5.28;;
71878;SDS011;59755;43.834;4.364;2022-12-05T06:18:44;9.95;;;4.30;;
71878;SDS011;59755;43.834;4.364;2022-12-05T06:21:10;12.25;;;5.00;;
71878;SDS011;59755;43.834;4.364;2022-12-05T06:23:36;10.18;;;4.22;;
71878;SDS011;59755;43.834;4.364;2022-12-05T06:26:03;12.18;;;5.18;;
71878;SDS011;59755;43.834;4.364;2022-12-05T06:28:29;12.88;;;4.90;;
71878;SDS011;59755;43.834;4.364;2022-12-05T06:30:56;12.88;;;4.97;;
71878;SDS011;59755;43.834;4.364;2022-12-05T06:33:22;12.05;;;5.35;;
71878;SDS011;59755;43.834;4.364;2022-12-05T06:35:48;10.15;;;4.78;;
71878;SDS011;59755;43.834;4.364;2022-12-05T06:38:24;10.20;;;4.72;;
71878;SDS011;59755;43.834;4.364;2022-12-05T06:40:50;10.60;;;5.03;;
71878;SDS011;59755;43.834;4.364;2022-12-05T06:43:16;10.15;;;4.40;;
71878;SDS011;59755;43.834;4.364;2022-12-05T06:45:41;10.88;;;5.05;;
71878;SDS011;59755;43.834;4.364;2022-12-05T06:48:07;8.50;;;4.28;;
71878;SDS011;59755;43.834;4.364;2022-12-05T06:50:33;10.02;;;4.70;;
71878;SDS011;59755;43.834;4.364;2022-12-05T06:52:58;9.45;;;4.63;;
71878;SDS011;59755;43.834;4.364;2022-12-05T06:55:24;10.43;;;4.97;;
71878;SDS011;59755;43.834;4.364;2022-12-05T06:57:50;9.68;;;4.93;;
71878;SDS011;59755;43.834;4.364;2022-12-05T07:00:16;11.00;;;5.40;;
71878;SDS011;59755;43.834;4.364;2022-12-05T07:03:00;11.23;;;4.68;;
71878;SDS011;59755;43.834;4.364;2022-12-05T07:05:25;10.30;;;5.03;;
71878;SDS011;59755;43.834;4.364;2022-12-05T07:07:51;10.15;;;4.97;;
71878;SDS011;59755;43.834;4.364;2022-12-05T07:10:17;13.05;;;4.95;;
71878;SDS011;59755;43.834;4.364;2022-12-05T07:12:43;9.43;;;4.60;;
71878;SDS011;59755;43.834;4.364;2022-12-05T07:15:08;12.50;;;4.93;;
71878;SDS011;59755;43.834;4.364;2022-12-05T07:17:35;10.55;;;4.63;;
71878;SDS011;59755;43.834;4.364;2022-12-05T07:20:03;10.13;;;4.85;;
71878;SDS011;59755;43.834;4.364;2022-12-05T07:22:30;11.93;;;6.35;;
71878;SDS011;59755;43.834;4.364;2022-12-05T07:24:55;12.93;;;5.35;;
71878;SDS011;59755;43.834;4.364;2022-12-05T07:27:21;12.50;;;5.38;;
71878;SDS011;59755;43.834;4.364;2022-12-05T07:29:47;11.23;;;5.60;;
71878;SDS011;59755;43.834;4.364;2022-12-05T07:32:13;13.13;;;5.72;;
71878;SDS011;59755;43.834;4.364;2022-12-05T07:34:38;12.40;;;5.43;;
71878;SDS011;59755;43.834;4.364;2022-12-05T07:37:04;10.27;;;4.90;;
71878;SDS011;59755;43.834;4.364;2022-12-05T07:39:30;11.60;;;5.13;;
71878;SDS011;59755;43.834;4.364;2022-12-05T07:41:56;12.68;;;6.30;;
71878;SDS011;59755;43.834;4.364;2022-12-05T07:44:22;12.32;;;5.38;;
71878;SDS011;59755;43.834;4.364;2022-12-05T07:46:47;9.55;;;4.82;;
71878;SDS011;59755;43.834;4.364;2022-12-05T07:49:13;10.70;;;5.28;;
71878;SDS011;59755;43.834;4.364;2022-12-05T07:51:42;11.00;;;5.43;;
71878;SDS011;59755;43.834;4.364;2022-12-05T07:54:07;11.65;;;5.07;;
71878;SDS011;59755;43.834;4.364;2022-12-05T07:56:33;16.05;;;6.80;;
71878;SDS011;59755;43.834;4.364;2022-12-05T07:58:59;16.58;;;7.45;;
71878;SDS011;59755;43.834;4.364;2022-12-05T08:01:26;15.63;;;7.93;;
71878;SDS011;59755;43.834;4.364;2022-12-05T08:03:53;12.27;;;6.13;;
71878;SDS011;59755;43.834;4.364;2022-12-05T08:06:25;10.45;;;4.97;;
71878;SDS011;59755;43.834;4.364;2022-12-05T08:08:52;11.52;;;4.10;;
71878;SDS011;59755;43.834;4.364;2022-12-05T08:11:20;11.82;;;4.53;;
71878;SDS011;59755;43.834;4.364;2022-12-05T08:13:47;11.77;;;4.18;;
71878;SDS011;59755;43.834;4.364;2022-12-05T08:16:14;9.10;;;4.35;;
71878;SDS011;59755;43.834;4.364;2022-12-05T08:18:42;9.93;;;5.28;;
71878;SDS011;59755;43.834;4.364;2022-12-05T08:21:17;10.73;;;4.72;;
71878;SDS011;59755;43.834;4.364;2022-12-05T08:23:43;10.35;;;4.78;;
71878;SDS011;59755;43.834;4.364;2022-12-05T08:26:11;8.45;;;4.45;;
71878;SDS011;59755;43.834;4.364;2022-12-05T08:28:38;10.77;;;4.55;;
71878;SDS011;59755;43.834;4.364;2022-12-05T08:31:08;12.38;;;5.43;;
71878;SDS011;59755;43.834;4.364;2022-12-05T08:33:38;10.88;;;4.97;;
71878;SDS011;59755;43.834;4.364;2022-12-05T08:36:09;10.45;;;5.30;;
71878;SDS011;59755;43.834;4.364;2022-12-05T08:38:36;13.50;;;5.93;;
71878;SDS011;59755;43.834;4.364;2022-12-05T08:41:03;10.80;;;5.13;;
71878;SDS011;59755;43.834;4.364;2022-12-05T08:43:30;11.65;;;4.90;;
71878;SDS011;59755;43.834;4.364;2022-12-05T08:45:56;10.40;;;5.40;;
71878;SDS011;59755;43.834;4.364;2022-12-05T08:48:22;12.40;;;5.38;;
71878;SDS011;59755;43.834;4.364;2022-12-05T08:50:49;10.38;;;5.03;;
71878;SDS011;59755;43.834;4.364;2022-12-05T08:53:15;11.13;;;5.07;;
71878;SDS011;59755;43.834;4.364;2022-12-05T08:55:41;10.48;;;5.05;;
71878;SDS011;59755;43.834;4.364;2022-12-05T08:58:07;11.27;;;5.20;;
71878;SDS011;59755;43.834;4.364;2022-12-05T09:00:33;11.40;;;5.43;;
71878;SDS011;59755;43.834;4.364;2022-12-05T09:02:59;11.38;;;4.75;;
71878;SDS011;59755;43.834;4.364;2022-12-05T09:05:24;9.88;;;5.00;;
71878;SDS011;59755;43.834;4.364;2022-12-05T09:07:50;11.13;;;5.10;;
71878;SDS011;59755;43.834;4.364;2022-12-05T09:10:16;11.13;;;4.88;;
71878;SDS011;59755;43.834;4.364;2022-12-05T09:12:42;11.95;;;4.97;;
71878;SDS011;59755;43.834;4.364;2022-12-05T09:15:09;8.38;;;4.53;;
71878;SDS011;59755;43.834;4.364;2022-12-05T09:17:36;9.63;;;4.57;;
71878;SDS011;59755;43.834;4.364;2022-12-05T09:20:03;10.23;;;4.93;;
71878;SDS011;59755;43.834;4.364;2022-12-05T09:22:30;12.90;;;6.70;;
71878;SDS011;59755;43.834;4.364;2022-12-05T09:24:55;11.10;;;5.10;;
71878;SDS011;59755;43.834;4.364;2022-12-05T09:27:21;9.52;;;4.60;;
71878;SDS011;59755;43.834;4.364;2022-12-05T09:29:47;8.07;;;4.57;;
71878;SDS011;59755;43.834;4.364;2022-12-05T09:32:13;9.13;;;4.57;;
71878;SDS011;59755;43.834;4.364;2022-12-05T09:34:38;12.10;;;4.70;;
71878;SDS011;59755;43.834;4.364;2022-12-05T09:37:04;10.23;;;5.43;;
71878;SDS011;59755;43.834;4.364;2022-12-05T09:39:31;11.00;;;5.38;;
71878;SDS011;59755;43.834;4.364;2022-12-05T09:47:59;10.05;;;4.57;;
71878;SDS011;59755;43.834;4.364;2022-12-05T09:50:52;10.25;;;4.95;;
71878;SDS011;59755;43.834;4.364;2022-12-05T09:55:57;9.38;;;4.75;;
71878;SDS011;59755;43.834;4.364;2022-12-05T09:58:41;10.68;;;4.70;;
71878;SDS011;59755;43.834;4.364;2022-12-05T10:12:04;8.73;;;3.90;;
71878;SDS011;59755;43.834;4.364;2022-12-05T10:17:40;9.10;;;3.92;;
71878;SDS011;59755;43.834;4.364;2022-12-05T10:20:12;8.90;;;4.60;;
71878;SDS011;59755;43.834;4.364;2022-12-05T10:22:55;10.00;;;4.78;;
71878;SDS011;59755;43.834;4.364;2022-12-05T10:25:28;8.40;;;4.28;;
71878;SDS011;59755;43.834;4.364;2022-12-05T10:27:58;9.82;;;5.22;;
71878;SDS011;59755;43.834;4.364;2022-12-05T10:30:31;9.45;;;4.85;;
71878;SDS011;59755;43.834;4.364;2022-12-05T10:33:09;9.93;;;4.90;;
71878;SDS011;59755;43.834;4.364;2022-12-05T10:35:41;10.43;;;5.07;;
71878;SDS011;59755;43.834;4.364;2022-12-05T10:40:57;11.15;;;5.13;;
71878;SDS011;59755;43.834;4.364;2022-12-05T10:43:26;9.23;;;5.10;;
71878;SDS011;59755;43.834;4.364;2022-12-05T10:45:54;9.90;;;5.30;;
71878;SDS011;59755;43.834;4.364;2022-12-05T10:48:20;9.68;;;5.40;;
71878;SDS011;59755;43.834;4.364;2022-12-05T10:50:54;11.23;;;5.70;;
71878;SDS011;59755;43.834;4.364;2022-12-05T10:53:28;10.57;;;5.60;;
71878;SDS011;59755;43.834;4.364;2022-12-05T10:59:13;11.25;;;5.68;;
71878;SDS011;59755;43.834;4.364;2022-12-05T11:05:00;10.52;;;5.65;;
71878;SDS011;59755;43.834;4.364;2022-12-05T11:07:09;9.57;;;5.20;;
71878;SDS011;59755;43.834;4.364;2022-12-05T11:09:52;10.07;;;5.38;;
71878;SDS011;59755;43.834;4.364;2022-12-05T11:14:55;10.77;;;5.82;;
71878;SDS011;59755;43.834;4.364;2022-12-05T11:17:25;9.85;;;5.63;;
71878;SDS011;59755;43.834;4.364;2022-12-05T11:19:56;10.52;;;5.85;;
71878;SDS011;59755;43.834;4.364;2022-12-05T11:22:34;10.70;;;6.80;;
71878;SDS011;59755;43.834;4.364;2022-12-05T11:25:00;10.45;;;6.03;;
71878;SDS011;59755;43.834;4.364;2022-12-05T11:27:50;11.45;;;6.20;;
71878;SDS011;59755;43.834;4.364;2022-12-05T11:30:18;8.60;;;5.05;;
71878;SDS011;59755;43.834;4.364;2022-12-05T11:32:45;8.63;;;5.35;;
71878;SDS011;59755;43.834;4.364;2022-12-05T11:43:36;10.98;;;6.18;;
71878;SDS011;59755;43.834;4.364;2022-12-05T12:04:24;8.98;;;5.32;;
71878;SDS011;59755;43.834;4.364;2022-12-05T12:29:19;7.80;;;4.65;;
71878;SDS011;59755;43.834;4.364;2022-12-05T12:51:30;7.80;;;4.22;;
71878;SDS011;59755;43.834;4.364;2022-12-05T12:59:48;6.83;;;4.00;;
71878;SDS011;59755;43.834;4.364;2022-12-05T13:02:35;7.75;;;4.07;;
71878;SDS011;59755;43.834;4.364;2022-12-05T13:10:50;7.53;;;4.47;;
71878;SDS011;59755;43.834;4.364;2022-12-05T13:13:39;8.27;;;4.22;;
71878;SDS011;59755;43.834;4.364;2022-12-05T13:16:09;6.55;;;3.70;;
71878;SDS011;59755;43.834;4.364;2022-12-05T13:18:40;6.85;;;3.83;;
71878;SDS011;59755;43.834;4.364;2022-12-05T13:21:06;6.82;;;3.90;;
71878;SDS011;59755;43.834;4.364;2022-12-05T13:23:37;7.07;;;4.15;;
71878;SDS011;59755;43.834;4.364;2022-12-05T13:26:10;6.32;;;3.55;;
71878;SDS011;59755;43.834;4.364;2022-12-05T13:28:39;6.38;;;3.78;;
71878;SDS011;59755;43.834;4.364;2022-12-05T13:31:14;6.53;;;3.33;;
71878;SDS011;59755;43.834;4.364;2022-12-05T13:33:48;6.50;;;3.28;;
71878;SDS011;59755;43.834;4.364;2022-12-05T13:36:16;7.22;;;3.78;;
71878;SDS011;59755;43.834;4.364;2022-12-05T13:39:17;6.30;;;3.58;;
71878;SDS011;59755;43.834;4.364;2022-12-05T13:42:04;6.30;;;3.50;;
71878;SDS011;59755;43.834;4.364;2022-12-05T13:47:20;7.72;;;3.92;;
71878;SDS011;59755;43.834;4.364;2022-12-05T13:49:59;6.90;;;3.70;;
71878;SDS011;59755;43.834;4.364;2022-12-05T13:52:27;8.35;;;3.28;;
71878;SDS011;59755;43.834;4.364;2022-12-05T13:55:02;6.72;;;4.10;;
71878;SDS011;59755;43.834;4.364;2022-12-05T13:57:48;7.43;;;3.97;;
71878;SDS011;59755;43.834;4.364;2022-12-05T14:05:53;6.30;;;3.45;;
71878;SDS011;59755;43.834;4.364;2022-12-05T14:15:46;6.38;;;3.42;;
71878;SDS011;59755;43.834;4.364;2022-12-05T14:18:14;6.97;;;2.92;;
71878;SDS011;59755;43.834;4.364;2022-12-05T14:34:48;7.55;;;4.72;;
71878;SDS011;59755;43.834;4.364;2022-12-05T14:37:38;8.93;;;4.80;;
71878;SDS011;59755;43.834;4.364;2022-12-05T14:43:19;6.57;;;4.10;;
71878;SDS011;59755;43.834;4.364;2022-12-05T14:48:28;8.10;;;3.88;;
71878;SDS011;59755;43.834;4.364;2022-12-05T14:50:55;8.30;;;4.30;;
71878;SDS011;59755;43.834;4.364;2022-12-05T15:03:39;8.60;;;4.43;;
71878;SDS011;59755;43.834;4.364;2022-12-05T15:06:12;8.07;;;4.78;;
71878;SDS011;59755;43.834;4.364;2022-12-05T15:08:49;7.75;;;4.63;;
71878;SDS011;59755;43.834;4.364;2022-12-05T15:11:21;7.63;;;4.47;;
71878;SDS011;59755;43.834;4.364;2022-12-05T15:14:38;8.45;;;4.45;;
71878;SDS011;59755;43.834;4.364;2022-12-05T15:16:45;8.23;;;4.88;;
71878;SDS011;59755;43.834;4.364;2022-12-05T15:19:28;7.93;;;4.32;;
71878;SDS011;59755;43.834;4.364;2022-12-05T15:22:07;7.82;;;5.10;;
71878;SDS011;59755;43.834;4.364;2022-12-05T15:24:37;9.82;;;4.90;;
71878;SDS011;59755;43.834;4.364;2022-12-05T15:27:03;8.32;;;4.93;;
71878;SDS011;59755;43.834;4.364;2022-12-05T15:29:30;7.47;;;4.85;;
71878;SDS011;59755;43.834;4.364;2022-12-05T15:37:16;8.90;;;5.25;;
71878;SDS011;59755;43.834;4.364;2022-12-05T15:39:57;9.65;;;5.30;;
71878;SDS011;59755;43.834;4.364;2022-12-05T15:42:30;9.30;;;5.38;;
71878;SDS011;59755;43.834;4.364;2022-12-05T15:47:41;9.68;;;5.80;;
71878;SDS011;59755;43.834;4.364;2022-12-05T15:50:40;10.20;;;5.43;;
71878;SDS011;59755;43.834;4.364;2022-12-05T15:58:17;9.32;;;5.78;;
71878;SDS011;59755;43.834;4.364;2022-12-05T16:00:57;9.05;;;5.07;;
71878;SDS011;59755;43.834;4.364;2022-12-05T16:06:20;9.55;;;5.43;;
71878;SDS011;59755;43.834;4.364;2022-12-05T16:08:53;9.70;;;6.10;;
71878;SDS011;59755;43.834;4.364;2022-12-05T16:11:20;9.65;;;6.00;;
71878;SDS011;59755;43.834;4.364;2022-12-05T16:13:47;10.20;;;6.35;;
71878;SDS011;59755;43.834;4.364;2022-12-05T16:16:19;10.10;;;6.07;;
71878;SDS011;59755;43.834;4.364;2022-12-05T16:18:48;10.10;;;6.00;;
71878;SDS011;59755;43.834;4.364;2022-12-05T16:21:36;10.25;;;6.45;;
71878;SDS011;59755;43.834;4.364;2022-12-05T16:30:05;9.48;;;6.60;;
71878;SDS011;59755;43.834;4.364;2022-12-05T16:32:35;12.52;;;6.70;;
71878;SDS011;59755;43.834;4.364;2022-12-05T16:35:02;10.65;;;7.00;;
71878;SDS011;59755;43.834;4.364;2022-12-05T16:37:28;11.48;;;7.10;;
71878;SDS011;59755;43.834;4.364;2022-12-05T16:39:55;12.30;;;7.50;;
71878;SDS011;59755;43.834;4.364;2022-12-05T16:42:24;11.52;;;8.35;;
71878;SDS011;59755;43.834;4.364;2022-12-05T16:44:58;13.50;;;8.02;;
71878;SDS011;59755;43.834;4.364;2022-12-05T16:50:43;13.93;;;8.57;;
71878;SDS011;59755;43.834;4.364;2022-12-05T16:53:12;12.43;;;7.85;;
71878;SDS011;59755;43.834;4.364;2022-12-05T16:55:42;13.15;;;8.15;;
71878;SDS011;59755;43.834;4.364;2022-12-05T16:58:16;12.27;;;8.23;;
71878;SDS011;59755;43.834;4.364;2022-12-05T17:00:45;10.98;;;7.50;;
71878;SDS011;59755;43.834;4.364;2022-12-05T17:03:11;12.07;;;7.32;;
71878;SDS011;59755;43.834;4.364;2022-12-05T17:05:38;11.30;;;7.25;;
71878;SDS011;59755;43.834;4.364;2022-12-05T17:08:04;11.23;;;7.38;;
71878;SDS011;59755;43.834;4.364;2022-12-05T17:10:30;11.95;;;7.60;;
71878;SDS011;59755;43.834;4.364;2022-12-05T17:12:56;12.20;;;7.65;;
71878;SDS011;59755;43.834;4.364;2022-12-05T17:15:24;10.88;;;6.95;;
71878;SDS011;59755;43.834;4.364;2022-12-05T17:17:50;13.07;;;7.20;;
71878;SDS011;59755;43.834;4.364;2022-12-05T17:20:15;12.25;;;7.28;;
71878;SDS011;59755;43.834;4.364;2022-12-05T17:22:41;10.45;;;7.10;;
71878;SDS011;59755;43.834;4.364;2022-12-05T17:25:50;10.75;;;7.13;;
71878;SDS011;59755;43.834;4.364;2022-12-05T17:28:00;12.15;;;7.15;;
71878;SDS011;59755;43.834;4.364;2022-12-05T17:30:26;11.32;;;7.18;;
71878;SDS011;59755;43.834;4.364;2022-12-05T17:32:51;11.93;;;7.25;;
71878;SDS011;59755;43.834;4.364;2022-12-05T17:35:17;12.07;;;7.85;;
71878;SDS011;59755;43.834;4.364;2022-12-05T17:37:45;12.55;;;6.93;;
71878;SDS011;59755;43.834;4.364;2022-12-05T17:40:11;10.30;;;6.40;;
71878;SDS011;59755;43.834;4.364;2022-12-05T17:42:37;9.98;;;5.93;;
71878;SDS011;59755;43.834;4.364;2022-12-05T17:45:04;10.40;;;6.18;;
71878;SDS011;59755;43.834;4.364;2022-12-05T17:47:33;10.68;;;5.93;;
71878;SDS011;59755;43.834;4.364;2022-12-05T17:49:59;9.20;;;5.57;;
71878;SDS011;59755;43.834;4.364;2022-12-05T17:52:26;11.52;;;5.40;;
71878;SDS011;59755;43.834;4.364;2022-12-05T17:54:53;10.43;;;6.53;;
71878;SDS011;59755;43.834;4.364;2022-12-05T17:57:18;9.65;;;5.97;;
71878;SDS011;59755;43.834;4.364;2022-12-05T17:59:44;9.45;;;5.40;;
71878;SDS011;59755;43.834;4.364;2022-12-05T18:02:10;9.45;;;5.50;;
71878;SDS011;59755;43.834;4.364;2022-12-05T18:04:36;9.43;;;5.50;;
71878;SDS011;59755;43.834;4.364;2022-12-05T18:07:02;9.60;;;5.15;;
71878;SDS011;59755;43.834;4.364;2022-12-05T18:09:28;10.30;;;5.45;;
71878;SDS011;59755;43.834;4.364;2022-12-05T18:11:55;9.18;;;5.80;;
71878;SDS011;59755;43.834;4.364;2022-12-05T18:14:21;9.38;;;5.60;;
71878;SDS011;59755;43.834;4.364;2022-12-05T18:16:47;9.32;;;5.47;;
71878;SDS011;59755;43.834;4.364;2022-12-05T18:19:13;10.15;;;5.75;;
71878;SDS011;59755;43.834;4.364;2022-12-05T18:21:38;8.93;;;5.30;;
71878;SDS011;59755;43.834;4.364;2022-12-05T18:24:04;9.77;;;5.50;;
71878;SDS011;59755;43.834;4.364;2022-12-05T18:26:30;9.20;;;5.43;;
71878;SDS011;59755;43.834;4.364;2022-12-05T18:28:55;9.45;;;4.85;;
71878;SDS011;59755;43.834;4.364;2022-12-05T18:31:23;8.63;;;4.70;;
71878;SDS011;59755;43.834;4.364;2022-12-05T18:33:49;9.32;;;5.15;;
71878;SDS011;59755;43.834;4.364;2022-12-05T18:36:16;8.30;;;4.95;;
71878;SDS011;59755;43.834;4.364;2022-12-05T18:38:48;8.45;;;4.82;;
71878;SDS011;59755;43.834;4.364;2022-12-05T18:41:19;9.68;;;5.60;;
71878;SDS011;59755;43.834;4.364;2022-12-05T18:43:47;11.07;;;6.15;;
71878;SDS011;59755;43.834;4.364;2022-12-05T18:46:13;10.75;;;5.68;;